Time;durP1;ratioP1;P1;durP2;ratioP2;P2;SDS_P1;SDS_P2;PMS_P1;PMS_P2;Temp;Humidity;BMP_temperature;BMP_pressure;BME280_temperature;BME280_humidity;BME280_pressure;Samples;Min_cycle;Max_cycle;Signal;HPM_P1;HPM_P2
2022/07/11 00:00:12;;;;;;;6.60;3.45;;;;;;;17.47;78.07;100479.25;12209706;19;20089;-79
2022/07/11 00:04:14;;;;;;;5.47;3.90;;;;;;;17.37;78.32;100480.13;12196865;19;20013;-80
2022/07/11 00:08:15;;;;;;;5.10;4.03;;;;;;;17.27;78.98;100483.72;12191530;19;20020;-81
2022/07/11 00:12:20;;;;;;;7.10;4.40;;;;;;;17.16;79.63;100472.84;12206059;19;20113;-80
2022/07/11 00:16:21;;;;;;;4.78;3.65;;;;;;;17.07;79.95;100480.91;12194429;19;20027;-80
2022/07/11 00:20:23;;;;;;;7.47;4.40;;;;;;;16.99;80.17;100476.75;12177373;19;20003;-80
2022/07/11 00:24:26;;;;;;;5.93;3.83;;;;;;;16.95;80.80;100474.78;12206388;19;20111;-80
2022/07/11 00:28:28;;;;;;;5.85;4.10;;;;;;;16.94;81.12;100471.16;12215899;19;20015;-80
2022/07/11 00:32:30;;;;;;;6.93;3.67;;;;;;;16.94;81.21;100465.59;12181664;19;20014;-80
2022/07/11 00:36:32;;;;;;;6.95;3.92;;;;;;;16.93;81.65;100468.66;12199613;19;20582;-81
2022/07/11 00:40:33;;;;;;;7.00;4.07;;;;;;;16.97;81.52;100467.81;12214161;19;20114;-80
2022/07/11 00:44:36;;;;;;;6.93;3.80;;;;;;;17.02;81.42;100467.84;12173389;19;20018;-80
2022/07/11 00:48:37;;;;;;;6.00;3.75;;;;;;;17.07;81.56;100458.63;12204958;19;20015;-81
2022/07/11 00:52:40;;;;;;;6.10;3.85;;;;;;;17.07;81.70;100458.63;12183671;19;20014;-81
2022/07/11 00:56:42;;;;;;;4.80;3.70;;;;;;;17.09;81.43;100451.69;12207006;19;20340;-81
2022/07/11 01:00:44;;;;;;;7.03;4.15;;;;;;;17.10;81.75;100441.38;12195629;19;20010;-80
2022/07/11 01:04:45;;;;;;;7.27;3.80;;;;;;;17.12;81.91;100449.47;12179268;19;20082;-80
2022/07/11 01:08:47;;;;;;;8.13;4.20;;;;;;;17.14;81.99;100439.72;12196993;19;20006;-79
2022/07/11 01:12:50;;;;;;;6.78;3.75;;;;;;;17.16;81.91;100439.41;12205730;19;20464;-80
2022/07/11 01:16:51;;;;;;;6.70;4.20;;;;;;;17.14;81.98;100423.00;12170074;19;20015;-80
2022/07/11 01:20:53;;;;;;;5.15;4.40;;;;;;;17.15;82.14;100427.44;12206727;19;20010;-79
2022/07/11 01:24:55;;;;;;;6.63;4.20;;;;;;;17.19;82.23;100423.00;12202903;19;20010;-80
2022/07/11 01:29:05;;;;;;;7.03;4.30;;;;;;;17.21;82.47;100420.78;12183911;19;20046;-80
2022/07/11 01:33:07;;;;;;;6.15;4.35;;;;;;;17.22;82.37;100414.09;12209746;19;20102;-80
2022/07/11 01:37:08;;;;;;;5.50;3.72;;;;;;;17.26;82.63;100417.16;12210124;19;20015;-79
2022/07/11 01:41:10;;;;;;;5.93;4.18;;;;;;;17.28;82.56;100415.78;12184774;19;20109;-80
2022/07/11 01:45:12;;;;;;;7.28;4.50;;;;;;;17.28;82.62;100421.34;12201098;19;20077;-80
2022/07/11 01:49:15;;;;;;;4.85;4.05;;;;;;;17.28;82.90;100415.78;12201654;19;20070;-80
2022/07/11 01:53:18;;;;;;;5.30;3.90;;;;;;;17.31;82.45;100423.56;12197392;19;20019;-80
2022/07/11 01:57:20;;;;;;;7.25;4.30;;;;;;;17.31;82.50;100419.91;12213134;19;20021;-80
2022/07/11 02:01:22;;;;;;;5.03;3.88;;;;;;;17.33;82.49;100416.88;12209304;19;20010;-80
2022/07/11 02:05:24;;;;;;;6.97;4.00;;;;;;;17.31;82.66;100420.78;12181433;19;20441;-81
2022/07/11 02:09:26;;;;;;;5.93;3.65;;;;;;;17.33;82.53;100419.66;12219428;19;20059;-80
2022/07/11 02:13:27;;;;;;;5.07;3.53;;;;;;;17.33;82.51;100422.44;12197944;19;20006;-80
2022/07/11 02:17:29;;;;;;;6.82;4.20;;;;;;;17.33;82.60;100416.88;12188340;19;20010;-80
2022/07/11 02:21:31;;;;;;;5.28;3.53;;;;;;;17.33;82.92;100414.91;12205253;19;20010;-80
2022/07/11 02:25:35;;;;;;;5.88;4.22;;;;;;;17.35;82.91;100415.47;12250120;19;20006;-80
2022/07/11 02:29:36;;;;;;;7.32;4.15;;;;;;;17.35;83.12;100407.13;12213714;19;20044;-81
2022/07/11 02:33:38;;;;;;;10.15;3.95;;;;;;;17.35;83.22;100414.66;12219442;19;20014;-81
2022/07/11 02:37:40;;;;;;;5.20;3.57;;;;;;;17.35;83.21;100407.13;12194490;19;20011;-80
2022/07/11 02:41:42;;;;;;;7.15;3.90;;;;;;;17.33;83.32;100406.56;12209960;19;20381;-79
2022/07/11 02:45:43;;;;;;;5.38;4.10;;;;;;;17.33;83.08;100409.34;12216561;19;20499;-81
2022/07/11 02:49:47;;;;;;;7.80;3.95;;;;;;;17.33;83.18;100414.09;12199439;19;20006;-80
2022/07/11 02:53:49;;;;;;;5.18;4.22;;;;;;;17.36;82.99;100405.16;12215052;19;20456;-81
2022/07/11 02:57:51;;;;;;;7.57;3.78;;;;;;;17.37;83.08;100401.25;12212992;19;20537;-81
2022/07/11 03:01:53;;;;;;;7.35;4.18;;;;;;;17.36;83.31;100403.22;12191723;19;20010;-81
2022/07/11 03:05:54;;;;;;;5.93;3.63;;;;;;;17.36;83.24;100405.16;12206947;19;20113;-80
2022/07/11 03:09:56;;;;;;;5.97;3.75;;;;;;;17.39;83.28;100404.59;12205471;19;20393;-80
2022/07/11 03:13:58;;;;;;;5.45;4.38;;;;;;;17.38;83.23;100403.78;12190084;19;19996;-80
2022/07/11 03:18:00;;;;;;;5.97;3.65;;;;;;;17.39;83.42;100405.44;12206127;19;20079;-80
2022/07/11 03:22:03;;;;;;;6.87;3.57;;;;;;;17.39;83.37;100413.78;12207135;19;20011;-80
2022/07/11 03:26:04;;;;;;;6.93;3.60;;;;;;;17.41;83.19;100408.78;12194807;19;20010;-80
2022/07/11 03:30:06;;;;;;;4.05;3.60;;;;;;;17.41;83.28;100410.75;12205251;19;20699;-80
2022/07/11 03:34:08;;;;;;;7.15;3.60;;;;;;;17.43;83.27;100416.84;12208205;19;20672;-80
2022/07/11 03:38:10;;;;;;;5.47;3.65;;;;;;;17.44;83.26;100416.56;12181408;19;20086;-80
2022/07/11 03:42:12;;;;;;;8.02;4.07;;;;;;;17.43;83.02;100420.50;12207929;19;20081;-80
2022/07/11 03:46:14;;;;;;;5.15;3.50;;;;;;;17.45;83.27;100414.63;12209268;19;20073;-80
2022/07/11 03:50:16;;;;;;;4.72;3.38;;;;;;;17.45;83.50;100406.25;12181678;19;20021;-79
2022/07/11 03:54:19;;;;;;;8.43;4.57;;;;;;;17.48;83.13;100406.53;12210483;19;20002;-79
2022/07/11 03:58:21;;;;;;;6.57;3.92;;;;;;;17.49;83.35;100407.34;12210819;19;20066;-80
2022/07/11 04:02:23;;;;;;;5.03;3.92;;;;;;;17.50;83.46;100406.25;12188826;19;20007;-79
2022/07/11 04:06:25;;;;;;;7.13;3.92;;;;;;;17.51;83.43;100407.91;12203927;19;20011;-80
2022/07/11 04:10:27;;;;;;;6.70;3.97;;;;;;;17.55;83.53;100403.47;12209902;19;20016;-80
2022/07/11 04:14:29;;;;;;;8.10;4.32;;;;;;;17.60;83.24;100399.81;12173016;19;20762;-79
2022/07/11 04:18:30;;;;;;;8.48;4.50;;;;;;;17.63;83.27;100394.50;12200420;19;20070;-79
2022/07/11 04:22:32;;;;;;;7.95;3.95;;;;;;;17.64;83.23;100395.34;12202666;19;20017;-80
2022/07/11 04:26:34;;;;;;;6.35;4.10;;;;;;;17.71;82.89;100391.16;12186529;19;20029;-80
2022/07/11 04:30:35;;;;;;;5.13;3.80;;;;;;;17.77;82.95;100397.56;12198694;19;20029;-80
2022/07/11 04:34:37;;;;;;;7.65;4.03;;;;;;;17.82;82.66;100392.00;12198854;19;20069;-79
2022/07/11 04:38:39;;;;;;;6.53;4.13;;;;;;;17.88;82.50;100390.88;12184965;19;20019;-79
2022/07/11 04:42:40;;;;;;;7.60;4.75;;;;;;;17.91;81.98;100395.88;12197057;19;20015;-79
2022/07/11 04:46:42;;;;;;;5.43;3.88;;;;;;;18.00;82.05;100393.31;12186626;19;20070;-78
2022/07/11 04:50:44;;;;;;;5.63;4.30;;;;;;;18.07;81.88;100396.63;12206713;19;20039;-79
2022/07/11 04:54:46;;;;;;;6.90;3.60;;;;;;;18.17;81.36;100393.81;12201313;19;20188;-79
2022/07/11 04:58:47;;;;;;;5.25;4.15;;;;;;;18.28;81.09;100396.53;12186335;19;20010;-79
2022/07/11 05:02:49;;;;;;;7.20;4.35;;;;;;;18.36;80.52;100404.31;12202268;19;20073;-79
2022/07/11 05:06:51;;;;;;;5.47;3.88;;;;;;;18.39;80.08;100401.78;12202327;19;20007;-79
2022/07/11 05:10:52;;;;;;;8.45;3.47;;;;;;;18.45;80.13;100403.41;12188197;19;20003;-80
2022/07/11 05:14:55;;;;;;;7.80;4.07;;;;;;;18.56;79.05;100418.16;12203942;19;20032;-79
2022/07/11 05:18:56;;;;;;;7.70;4.50;;;;;;;18.65;78.91;100415.59;12207468;19;20031;-79
2022/07/11 05:22:58;;;;;;;7.78;4.28;;;;;;;18.72;78.19;100418.88;12183319;19;20036;-79
2022/07/11 05:27:00;;;;;;;6.68;4.25;;;;;;;18.83;77.37;100416.91;12206787;19;20011;-80
2022/07/11 05:31:02;;;;;;;7.10;4.50;;;;;;;18.94;76.99;100420.44;12210241;19;20376;-80
2022/07/11 05:35:04;;;;;;;7.57;4.07;;;;;;;19.03;76.65;100430.69;12188786;19;20694;-80
2022/07/11 05:39:06;;;;;;;5.63;3.47;;;;;;;19.18;76.53;100431.69;12224100;19;19990;-80
2022/07/11 05:43:08;;;;;;;6.97;4.18;;;;;;;19.21;75.39;100437.53;12234324;19;20006;-78
2022/07/11 05:47:09;;;;;;;9.90;3.90;;;;;;;19.32;74.58;100444.69;12235222;19;20014;-77
2022/07/11 05:51:11;;;;;;;6.60;4.10;;;;;;;19.42;73.64;100438.16;12247587;19;20044;-78
2022/07/11 05:55:13;;;;;;;6.55;3.95;;;;;;;19.54;73.42;100433.06;12234398;19;20535;-79
2022/07/11 05:59:19;;;;;;;6.68;3.80;;;;;;;19.74;72.80;100437.63;12209906;19;20014;-79
2022/07/11 06:03:21;;;;;;;11.05;4.68;;;;;;;19.88;71.76;100428.53;12225402;19;20011;-79
2022/07/11 06:11:43;;;;;;;9.35;4.57;;;;;;;20.24;70.58;100432.56;12201596;19;20046;-79
2022/07/11 06:15:46;;;;;;;10.38;4.03;;;;;;;20.32;70.26;100430.25;12210772;19;20082;-79
2022/07/11 06:19:48;;;;;;;6.78;4.00;;;;;;;20.45;69.63;100430.31;12198649;19;20354;-79
2022/07/11 06:23:50;;;;;;;6.22;4.05;;;;;;;20.56;68.82;100430.22;12221592;19;20117;-80
2022/07/11 06:27:52;;;;;;;6.40;3.83;;;;;;;20.61;68.77;100433.78;12216861;19;20714;-79
2022/07/11 06:31:53;;;;;;;5.93;3.55;;;;;;;20.61;68.56;100432.94;12190557;19;20014;-81
2022/07/11 06:35:55;;;;;;;5.28;3.35;;;;;;;20.63;68.08;100436.28;12211802;19;20015;-80
2022/07/11 06:39:57;;;;;;;5.53;3.42;;;;;;;20.71;67.87;100432.81;12210241;19;20086;-82
2022/07/11 06:43:59;;;;;;;9.38;3.75;;;;;;;20.92;67.13;100422.13;12183214;19;20003;-81
2022/07/11 06:48:01;;;;;;;6.72;3.25;;;;;;;20.95;66.46;100424.31;12218628;19;20554;-81
2022/07/11 06:52:03;;;;;;;9.45;3.85;;;;;;;20.89;66.53;100425.53;12213531;19;20010;-80
2022/07/11 06:56:05;;;;;;;4.70;3.03;;;;;;;20.73;67.06;100433.31;12190459;19;20018;-79
2022/07/11 07:00:08;;;;;;;7.70;3.37;;;;;;;20.61;67.95;100430.13;12211559;19;20830;-81
2022/07/11 07:04:10;;;;;;;6.13;4.10;;;;;;;20.71;67.15;100427.19;12214593;19;20731;-81
2022/07/11 07:08:12;;;;;;;7.93;3.50;;;;;;;21.02;66.96;100421.13;12189180;19;20023;-81
2022/07/11 07:12:13;;;;;;;5.78;2.97;;;;;;;21.49;65.75;100427.63;12195286;19;20002;-81
2022/07/11 07:16:16;;;;;;;8.67;4.77;;;;;;;21.60;62.99;100429.13;12205122;19;20070;-80
2022/07/11 07:20:17;;;;;;;9.13;4.63;;;;;;;21.46;63.90;100436.66;12187442;19;20023;-80
2022/07/11 07:24:19;;;;;;;7.57;3.72;;;;;;;21.72;63.19;100429.47;12205763;19;20013;-80
2022/07/11 07:28:22;;;;;;;9.32;3.78;;;;;;;21.62;63.21;100435.25;12209516;19;20037;-81
2022/07/11 07:32:24;;;;;;;7.13;3.28;;;;;;;21.58;62.66;100434.19;12184063;19;20082;-81
2022/07/11 07:36:26;;;;;;;6.10;3.47;;;;;;;21.69;62.85;100435.69;12213278;19;20070;-80
2022/07/11 07:40:29;;;;;;;;;;;;;;;21.63;62.48;100438.91;12211978;19;20070;-81
2022/07/11 07:44:32;;;;;;;7.97;3.47;;;;;;;21.54;62.62;100441.56;12181438;19;19927;-81
2022/07/11 07:48:35;;;;;;;5.60;3.53;;;;;;;21.43;62.29;100438.13;12199550;19;20010;-82
2022/07/11 07:52:37;;;;;;;7.50;3.80;;;;;;;21.39;62.66;100437.06;12183785;19;20062;-80
2022/07/11 07:56:39;;;;;;;5.53;3.10;;;;;;;21.24;62.71;100440.94;12181737;19;20033;-79
2022/07/11 08:05:03;;;;;;;8.02;3.65;;;;;;;21.34;63.06;100431.50;12182225;19;20007;-80
2022/07/11 08:09:05;;;;;;;6.55;3.47;;;;;;;21.44;63.08;100439.75;12203950;19;20042;-80
2022/07/11 08:13:07;;;;;;;;;;;;;;;21.53;62.62;100437.91;12214619;19;20006;-79
2022/07/11 08:17:08;;;;;;;7.28;3.33;;;;;;;21.63;62.30;100441.69;12188607;19;19976;-81
2022/07/11 08:21:10;;;;;;;8.57;3.10;;;;;;;21.59;62.68;100433.91;12203507;19;20563;-81
2022/07/11 08:25:15;;;;;;;10.70;3.85;;;;;;;21.65;62.19;100434.63;12211699;19;20368;-80
2022/07/11 08:29:16;;;;;;;5.88;3.33;;;;;;;21.76;62.01;100433.28;12186397;19;20010;-81
2022/07/11 08:33:18;;;;;;;7.65;3.70;;;;;;;22.01;61.95;100436.75;12206204;19;20010;-81
2022/07/11 08:37:20;;;;;;;10.45;3.38;;;;;;;22.29;61.06;100434.81;12207324;19;20078;-80
2022/07/11 08:41:22;;;;;;;4.47;2.58;;;;;;;22.34;59.93;100439.47;12178069;19;20025;-81
2022/07/11 08:45:29;;;;;;;7.38;3.15;;;;;;;22.37;59.62;100442.50;12208162;19;20023;-80
2022/07/11 08:49:31;;;;;;;6.38;2.95;;;;;;;22.41;59.29;100434.28;12210752;19;20070;-81
2022/07/11 08:53:40;;;;;;;6.83;2.80;;;;;;;22.73;58.35;100436.09;12181853;19;20010;-80
2022/07/11 08:57:42;;;;;;;5.30;2.55;;;;;;;23.02;57.57;100435.69;12206126;19;20134;-81
2022/07/11 09:01:45;;;;;;;5.20;2.90;;;;;;;23.25;56.79;100433.72;12187496;19;20023;-81
2022/07/11 09:05:47;;;;;;;4.68;2.75;;;;;;;23.32;55.32;100434.13;12205943;19;20007;-81
2022/07/11 09:09:49;;;;;;;7.13;2.72;;;;;;;23.22;55.76;100436.34;12203393;19;20017;-81
2022/07/11 09:13:51;;;;;;;4.00;2.60;;;;;;;22.86;56.97;100440.81;12189913;19;20010;-80
2022/07/11 09:17:52;;;;;;;4.80;3.08;;;;;;;22.45;57.52;100440.91;12247373;19;20034;-80
2022/07/11 09:26:22;;;;;;;5.97;3.47;;;;;;;21.90;59.27;100440.91;12183919;19;20464;-81
2022/07/11 09:30:27;;;;;;;;;;;;;;;21.72;59.77;100437.03;12208166;19;20011;-82
2022/07/11 09:34:30;;;;;;;5.32;3.20;;;;;;;21.80;59.79;100439.13;12206271;19;20332;-82
2022/07/11 09:38:32;;;;;;;7.55;3.55;;;;;;;22.06;59.52;100437.47;12180329;19;20078;-81
2022/07/11 09:42:47;;;;;;;6.55;3.03;;;;;;;22.56;58.47;100433.94;12200916;19;20420;-81
2022/07/11 09:46:51;;;;;;;6.25;3.70;;;;;;;22.83;56.91;100432.19;12184590;19;20496;-79
2022/07/11 09:51:00;;;;;;;7.45;3.30;;;;;;;23.42;56.36;100430.22;12195556;19;20019;-80
2022/07/11 09:55:05;;;;;;;6.72;3.40;;;;;;;23.85;55.34;100424.00;12196618;19;20157;-81
2022/07/11 09:59:22;;;;;;;6.78;2.70;;;;;;;24.50;53.61;100420.44;12178508;19;20010;-81
2022/07/11 10:03:25;;;;;;;6.28;2.85;;;;;;;25.10;52.27;100418.81;12200597;19;20019;-81
2022/07/11 10:07:50;;;;;;;4.55;2.78;;;;;;;25.26;50.52;100419.19;12168697;19;22085;-81
2022/07/11 10:11:52;;;;;;;6.47;2.65;;;;;;;25.10;50.29;100412.34;12207586;19;20073;-81
2022/07/11 10:15:55;;;;;;;6.93;2.53;;;;;;;25.00;50.49;100407.88;12205201;19;20527;-80
2022/07/11 10:20:15;;;;;;;5.00;2.50;;;;;;;25.09;50.02;100402.22;12191039;19;20028;-81
2022/07/11 10:24:35;;;;;;;3.75;2.53;;;;;;;25.15;49.35;100406.56;12212315;19;20086;-81
2022/07/11 10:28:45;;;;;;;3.92;2.20;;;;;;;25.21;49.50;100406.06;12212108;19;20037;-81
2022/07/11 10:32:58;;;;;;;3.53;2.50;;;;;;;25.75;47.81;100416.88;12194618;19;20091;-81
2022/07/11 10:37:04;;;;;;;3.42;2.50;;;;;;;25.92;46.66;100404.72;12206353;19;20049;-81
2022/07/11 10:41:21;;;;;;;5.43;2.40;;;;;;;26.09;46.42;100407.47;12192137;19;20033;-81
2022/07/11 10:45:22;;;;;;;5.30;2.28;;;;;;;26.17;46.02;100408.59;12211732;19;20063;-82
2022/07/11 10:49:37;;;;;;;5.25;2.70;;;;;;;26.12;44.87;100411.63;12214669;19;20010;-81
2022/07/11 10:53:45;;;;;;;3.40;2.60;;;;;;;25.84;45.57;100420.53;12192030;19;20370;-81
2022/07/11 10:58:09;;;;;;;3.92;2.22;;;;;;;25.54;45.82;100413.97;12216611;19;20023;-82
2022/07/11 11:02:12;;;;;;;6.75;2.60;;;;;;;25.17;46.59;100407.91;12187041;19;20070;-81
2022/07/11 11:06:41;;;;;;;4.32;2.38;;;;;;;24.99;47.10;100409.88;12203325;19;20468;-82
2022/07/11 11:10:46;;;;;;;3.33;2.25;;;;;;;24.77;47.42;100410.84;12188419;19;20006;-81
2022/07/11 11:14:48;;;;;;;4.30;2.30;;;;;;;25.00;47.16;100405.88;12217476;19;20003;-81
2022/07/11 11:18:50;;;;;;;3.87;2.40;;;;;;;25.38;46.86;100405.22;12202783;19;20019;-81
2022/07/11 11:23:09;;;;;;;5.70;2.53;;;;;;;25.45;46.38;100399.88;12185080;19;20024;-80
2022/07/11 11:27:21;;;;;;;4.03;2.55;;;;;;;25.63;46.11;100402.66;12214958;19;20402;-80
2022/07/11 11:31:29;;;;;;;4.65;2.42;;;;;;;26.23;45.27;100398.75;12210990;19;20006;-82
2022/07/11 11:35:32;;;;;;;3.75;2.42;;;;;;;26.39;43.90;100387.72;12185912;19;20014;-82
2022/07/11 11:39:41;;;;;;;5.00;2.30;;;;;;;26.40;43.82;100386.53;12198879;19;20348;-81
2022/07/11 11:43:45;;;;;;;2.90;2.05;;;;;;;26.58;43.75;100390.09;12183119;19;20335;-82
2022/07/11 11:47:53;;;;;;;5.55;2.40;;;;;;;26.58;43.90;100401.38;12204295;19;20015;-81
2022/07/11 11:51:55;;;;;;;3.20;2.20;;;;;;;26.54;43.50;100391.97;12205846;19;20006;-80
2022/07/11 11:55:57;;;;;;;3.88;2.50;;;;;;;26.34;43.59;100397.19;12182465;19;20413;-81
2022/07/11 11:59:59;;;;;;;3.25;2.15;;;;;;;26.27;44.09;100402.56;12208002;19;20049;-81
2022/07/11 12:04:10;;;;;;;4.32;2.30;;;;;;;26.03;44.30;100397.53;12207201;19;20033;-82
2022/07/11 12:08:27;;;;;;;2.95;1.95;;;;;;;25.99;44.41;100393.72;12175931;19;20027;-82
2022/07/11 12:12:52;;;;;;;4.38;2.42;;;;;;;26.13;44.06;100390.69;12207068;19;20018;-82
2022/07/11 12:16:54;;;;;;;3.83;2.28;;;;;;;26.03;43.78;100394.72;12188659;19;20090;-83
2022/07/11 12:21:10;;;;;;;3.20;2.20;;;;;;;26.07;44.30;100392.03;12207176;19;20033;-83
2022/07/11 12:25:13;;;;;;;4.40;2.33;;;;;;;26.15;44.07;100388.34;12212143;19;20010;-82
2022/07/11 12:29:23;;;;;;;4.68;2.30;;;;;;;25.91;44.84;100388.97;12183967;19;20357;-83
2022/07/11 12:33:27;;;;;;;6.05;2.28;;;;;;;25.84;45.36;100383.84;12201613;19;20010;-81
2022/07/11 12:37:47;;;;;;;;;;;;;;;25.69;44.90;100390.00;12211336;19;20007;-82
2022/07/11 12:41:56;;;;;;;4.47;2.30;;;;;;;25.72;45.31;100392.16;12190909;19;19911;-82
2022/07/11 12:46:02;;;;;;;3.92;2.28;;;;;;;25.76;45.73;100387.50;12251444;19;20003;-82
2022/07/11 12:50:18;;;;;;;4.35;2.50;;;;;;;25.63;44.61;100385.72;12196561;19;20021;-82
2022/07/11 12:54:33;;;;;;;10.10;2.63;;;;;;;25.90;43.82;100381.66;12210796;19;20018;-82
2022/07/11 12:58:39;;;;;;;5.97;2.67;;;;;;;26.40;43.47;100375.22;12209842;19;20038;-82
2022/07/11 13:02:48;;;;;;;5.50;2.50;;;;;;;26.23;43.73;100378.97;12186118;19;20033;-82
2022/07/11 13:11:20;;;;;;;4.07;2.60;;;;;;;26.04;43.94;100367.31;12175726;19;20035;-82
2022/07/11 13:15:23;;;;;;;4.78;2.70;;;;;;;26.07;44.25;100377.91;12209132;19;20029;-82
2022/07/11 13:19:36;;;;;;;5.05;2.92;;;;;;;26.21;43.53;100366.38;12206560;19;20010;-86
2022/07/11 13:23:59;;;;;;;4.38;2.63;;;;;;;27.09;42.82;100368.19;12189331;19;20003;-85
2022/07/11 13:28:37;;;;;;;4.95;2.55;;;;;;;28.04;40.82;100363.47;12225784;19;20031;-83
2022/07/11 13:32:40;;;;;;;5.53;2.97;;;;;;;27.69;40.47;100351.72;12182060;19;20018;-84
2022/07/11 13:36:41;;;;;;;4.85;2.70;;;;;;;28.74;38.97;100346.25;12205255;19;20476;-82
2022/07/11 13:40:46;;;;;;;4.15;2.60;;;;;;;29.09;38.06;100351.31;12184893;19;21995;-82
2022/07/11 13:44:48;;;;;;;4.97;2.58;;;;;;;29.86;37.13;100353.81;12197054;19;20088;-82
2022/07/11 13:48:49;;;;;;;3.97;2.38;;;;;;;29.34;37.31;100348.38;12213891;19;20019;-83
2022/07/11 13:52:51;;;;;;;4.13;2.42;;;;;;;28.85;38.63;100347.41;12187748;19;20037;-82
2022/07/11 13:56:53;;;;;;;7.53;2.67;;;;;;;28.36;38.44;100343.84;12213290;19;20341;-83
2022/07/11 14:00:55;;;;;;;;;;;;;;;27.82;39.56;100342.13;12221411;19;20090;-82
2022/07/11 14:04:58;;;;;;;3.63;2.10;;;;;;;27.97;39.77;100349.09;12189045;19;19914;-83
2022/07/11 14:09:01;;;;;;;3.08;1.90;;;;;;;31.13;35.52;100347.78;12208345;19;20018;-83
2022/07/11 14:13:04;;;;;;;3.10;1.85;;;;;;;32.32;33.13;100340.13;12209059;19;20334;-83
2022/07/11 14:17:37;;;;;;;4.60;1.98;;;;;;;31.73;32.53;100335.91;12191302;19;20023;-84
2022/07/11 14:22:17;;;;;;;3.90;1.75;;;;;;;30.48;33.19;100336.22;12203902;19;20014;-83
2022/07/11 14:26:35;;;;;;;4.75;1.67;;;;;;;29.25;35.34;100337.19;12192822;19;20364;-83
2022/07/11 14:30:43;;;;;;;3.58;2.03;;;;;;;31.09;33.55;100330.66;12213140;19;20011;-84
2022/07/11 14:34:48;;;;;;;5.55;2.03;;;;;;;32.86;30.86;100318.88;12183588;19;20013;-84
2022/07/11 14:38:52;;;;;;;2.63;1.92;;;;;;;34.32;27.68;100315.78;12207501;19;20014;-83
2022/07/11 14:42:54;;;;;;;6.40;2.20;;;;;;;35.70;26.29;100322.47;12203203;19;20107;-83
2022/07/11 14:47:01;;;;;;;2.65;2.10;;;;;;;36.73;25.71;100318.59;12149092;19;20026;-84
2022/07/11 14:51:21;;;;;;;3.50;2.25;;;;;;;36.21;26.65;100321.22;12205643;19;20015;-85
2022/07/11 14:55:44;;;;;;;2.95;2.10;;;;;;;36.04;26.04;100310.59;12213804;19;20003;-82
2022/07/11 15:00:39;;;;;;;2.53;1.92;;;;;;;35.28;25.97;100317.44;12194593;19;20046;-84
2022/07/11 15:04:54;;;;;;;2.40;2.10;;;;;;;34.72;26.92;100330.34;12143118;19;20074;-83
2022/07/11 15:13:51;;;;;;;3.38;2.33;;;;;;;35.36;26.59;100321.97;12199740;19;20014;-83
2022/07/11 15:17:52;;;;;;;3.38;2.13;;;;;;;36.54;24.95;100321.97;12188042;19;20110;-83
2022/07/11 15:21:55;;;;;;;2.90;2.13;;;;;;;37.37;24.16;100320.34;12197098;19;20077;-82
2022/07/11 15:25:56;;;;;;;3.22;2.35;;;;;;;38.67;23.21;100320.84;12186724;19;20007;-83
2022/07/11 15:30:02;;;;;;;2.60;2.10;;;;;;;38.71;22.81;100309.28;12209060;19;20876;-83
2022/07/11 15:34:05;;;;;;;4.88;2.20;;;;;;;37.23;24.60;100314.69;12213128;19;20033;-84
2022/07/11 15:38:06;;;;;;;2.50;1.95;;;;;;;35.75;25.27;100316.28;12187428;19;20018;-80
2022/07/11 15:42:08;;;;;;;2.47;2.15;;;;;;;34.37;26.37;100318.28;12207378;19;20094;-81
2022/07/11 15:46:11;;;;;;;6.03;2.22;;;;;;;33.05;27.51;100308.53;12214456;19;20021;-82
2022/07/11 15:50:14;;;;;;;2.72;2.25;;;;;;;31.87;28.89;100304.81;12187612;19;20010;-81
2022/07/11 15:54:18;;;;;;;2.75;2.10;;;;;;;30.84;29.97;100307.38;12196749;19;20018;-81
2022/07/11 15:58:21;;;;;;;4.03;1.98;;;;;;;30.07;30.97;100307.22;12215095;19;20014;-79
2022/07/11 16:02:24;;;;;;;2.55;1.77;;;;;;;29.46;32.49;100306.53;12194163;19;20010;-80
2022/07/11 16:06:27;;;;;;;3.05;1.80;;;;;;;29.34;32.29;100306.63;12202891;19;20011;-80
2022/07/11 16:10:30;;;;;;;7.57;1.95;;;;;;;28.76;33.68;100314.69;12204457;19;20018;-80
2022/07/11 16:14:44;;;;;;;4.70;2.08;;;;;;;28.37;34.27;100314.31;12194353;19;20014;-81
2022/07/11 16:18:52;;;;;;;4.05;1.90;;;;;;;27.97;34.98;100311.44;12249437;19;20018;-82
2022/07/11 16:22:54;;;;;;;4.07;2.13;;;;;;;27.30;36.31;100324.91;12197599;19;20006;-80
2022/07/11 16:26:56;;;;;;;6.57;1.85;;;;;;;27.09;36.57;100320.09;12211713;19;20010;-82
2022/07/11 16:31:15;;;;;;;4.20;1.70;;;;;;;27.00;36.42;100323.03;12206907;19;20381;-81
2022/07/11 16:35:36;;;;;;;2.25;1.58;;;;;;;26.82;37.27;100313.06;12182722;19;20044;-81
2022/07/11 16:44:08;;;;;;;1.77;1.40;;;;;;;26.39;37.49;100324.72;12175481;19;20024;-81
2022/07/11 16:48:17;;;;;;;2.63;1.50;;;;;;;26.30;38.13;100305.00;12220854;19;20014;-83
2022/07/11 16:52:23;;;;;;;6.63;1.98;;;;;;;26.25;39.23;100314.50;12205445;19;20078;-80
2022/07/11 16:56:52;;;;;;;3.08;1.63;;;;;;;26.25;39.25;100324.97;12184852;19;20021;-83
2022/07/11 17:01:19;;;;;;;2.17;1.50;;;;;;;26.29;38.94;100315.47;12203296;19;20460;-82
2022/07/11 17:05:26;;;;;;;3.40;1.58;;;;;;;26.18;39.40;100321.88;12205417;19;19999;-83
2022/07/11 17:09:45;;;;;;;3.15;1.80;;;;;;;25.89;40.06;100323.53;12213020;19;20045;-81
2022/07/11 17:14:06;;;;;;;3.67;1.95;;;;;;;25.90;40.12;100326.00;12186832;19;20018;-83
2022/07/11 17:18:08;;;;;;;5.90;2.03;;;;;;;25.81;40.59;100327.19;12215085;19;20014;-83
2022/07/11 17:22:22;;;;;;;2.65;1.90;;;;;;;25.60;41.31;100325.13;12232652;19;20086;-83
2022/07/11 17:26:37;;;;;;;2.88;2.00;;;;;;;25.37;41.64;100327.41;12186638;19;20085;-84
2022/07/11 17:31:04;;;;;;;3.63;1.70;;;;;;;25.18;42.07;100324.13;12205587;19;20014;-83
2022/07/11 17:35:31;;;;;;;3.30;1.98;;;;;;;24.87;42.97;100330.78;12187568;19;20078;-83
2022/07/11 17:39:47;;;;;;;3.95;1.75;;;;;;;24.71;43.42;100322.00;12208281;19;20025;-83
2022/07/11 17:43:55;;;;;;;2.25;1.52;;;;;;;24.37;45.14;100334.06;12186650;19;20028;-82
2022/07/11 17:47:57;;;;;;;2.65;1.60;;;;;;;24.11;45.55;100337.66;12210752;19;20031;-82
2022/07/11 17:51:59;;;;;;;2.47;1.17;;;;;;;24.03;45.73;100338.47;12210365;19;20739;-81
2022/07/11 17:56:22;;;;;;;2.15;1.58;;;;;;;23.83;46.83;100344.72;12178155;19;20006;-82
2022/07/11 18:00:34;;;;;;;2.92;1.27;;;;;;;23.70;46.72;100351.28;12202793;19;20011;-82
2022/07/11 18:04:54;;;;;;;2.55;1.40;;;;;;;23.57;46.61;100345.41;12177574;19;20011;-82
2022/07/11 18:09:04;;;;;;;2.40;1.40;;;;;;;23.54;46.77;100356.47;12195685;19;20098;-82
2022/07/11 18:13:07;;;;;;;2.42;1.60;;;;;;;23.40;47.27;100353.75;12211436;19;20006;-82
2022/07/11 18:17:48;;;;;;;1.45;1.20;;;;;;;23.29;48.51;100358.00;12169403;19;20358;-81
2022/07/11 18:26:54;;;;;;;2.90;1.30;;;;;;;22.86;49.44;100359.34;12177147;19;20090;-81
2022/07/11 18:30:58;;;;;;;3.10;1.67;;;;;;;22.66;50.21;100369.06;12217155;19;20014;-82
2022/07/11 18:35:10;;;;;;;1.50;1.35;;;;;;;22.55;50.72;100378.06;12213877;19;20074;-81
2022/07/11 18:43:58;;;;;;;4.30;1.40;;;;;;;22.32;51.16;100385.63;12207045;19;20014;-81
2022/07/11 18:47:55;;;;;;;3.28;1.52;;;;;;;22.26;51.23;100382.09;12189469;19;20063;-82
2022/07/11 18:51:59;;;;;;;2.05;1.38;;;;;;;22.14;52.37;100374.19;12209330;19;20007;-80
2022/07/11 18:56:00;;;;;;;1.50;1.20;;;;;;;21.97;53.45;100371.16;12201816;19;20078;-79
2022/07/11 19:00:09;;;;;;;2.67;1.52;;;;;;;21.90;53.16;100368.78;12220557;19;20076;-79
2022/07/11 19:04:12;;;;;;;4.10;1.60;;;;;;;21.75;53.68;100363.50;12206563;19;20075;-80
2022/07/11 19:08:13;;;;;;;3.10;1.20;;;;;;;21.67;53.99;100362.22;12196080;19;20025;-79
2022/07/11 19:12:16;;;;;;;4.10;1.40;;;;;;;21.58;53.74;100378.94;12216732;19;20074;-79
2022/07/11 19:16:18;;;;;;;2.73;1.37;;;;;;;21.44;54.58;100385.66;12217060;19;20086;-79
2022/07/11 19:20:20;;;;;;;1.55;1.33;;;;;;;21.27;54.92;100392.69;12193771;19;20483;-79
2022/07/11 19:24:21;;;;;;;2.60;1.30;;;;;;;21.12;55.58;100387.34;12215030;19;20007;-79
2022/07/11 19:28:23;;;;;;;3.33;1.33;;;;;;;20.94;56.54;100401.06;12223742;19;20033;-79